Victory — ODVS — position and weather

sailwx.info

Track history (hours):
 
Tides and Currents Weather Stations Pressure Air Temp Water Temp Dewpoint Dewpoint Depression Visibility Wind Speed Wind Dir Waves Ship Positions

Victory

Last reported at 2018-Jan-26 00:01 UTC. Time now 2018-Feb-25 06:12 UTC.
Position N 28°05' W 016°16'.
Warning: this ship's position is 30 days out of date.

Length 120 m; draft 6.2 m.

Type: Cargo ship. MMSI: 450548000.

Date/timePositionNaut miles runAvg speedWind from/ knotsBaromVisibWave heightAir tempDewpointWater temp
2018-Jan-26 00:01N 28°05' W 016°16'312.0
2018-Jan-25 23:49N 28°07' W 016°14'511.9
2018-Jan-25 23:25N 28°11' W 016°11'511.8
2018-Jan-25 22:59N 28°15' W 016°07'611.8
2018-Jan-25 22:26N 28°20' W 016°02'511.6
2018-Jan-25 22:00N 28°24' W 015°59'611.3
2018-Jan-25 21:28N 28°28' W 015°54'511.1
2018-Jan-25 21:00N 28°32' W 015°50'610.8
2018-Jan-25 20:28N 28°36' W 015°46'510.9
2018-Jan-25 19:59N 28°40' W 015°41'611.2
2018-Jan-25 19:29N 28°44' W 015°37'611.6
2018-Jan-25 19:00N 28°48' W 015°32'611.7
2018-Jan-25 18:30N 28°52' W 015°27'611.5
2018-Jan-25 18:00N 28°55' W 015°22'  
2018-Jan-23 07:22N 35°58' W 005°35'3 7.4
2018-Jan-23 06:54N 35°59' W 005°30'11 1.2
2018-Jan-22 21:39N 36°05' W 005°19'0 0.3
2018-Jan-22 21:26N 36°05' W 005°18'0 1.0
2018-Jan-22 21:00N 36°05' W 005°18'2 5.0
2018-Jan-22 20:30N 36°06' W 005°15'4 8.1
2018-Jan-22 20:01N 36°04' W 005°20'4 7.8
2018-Jan-22 19:28N 36°04' W 005°14'221 9.9
2018-Jan-21 21:08N 37°31' W 001°01'2 0.3
2018-Jan-21 11:35N 37°33' W 000°58'310.5
2018-Jan-21 11:16N 37°30' W 000°55'311.0
2018-Jan-21 10:59N 37°30' W 000°52'511.0
2018-Jan-21 10:31N 37°29' W 000°45'1110.5
2018-Jan-21 09:27N 37°30' W 000°31'510.8
2018-Jan-21 09:00N 37°30' W 000°25'811.4
2018-Jan-21 08:20N 37°30' W 000°16'6011.1
2018-Jan-21 02:59N 37°31' E 000°59'510.9
2018-Jan-21 02:29N 37°32' E 001°06'3810.0
2018-Jan-20 22:41N 37°32' E 001°54'2 9.9
2018-Jan-20 22:27N 37°32' E 001°57'610.1
2018-Jan-20 21:53N 37°32' E 002°04'55711.0
2018-Jan-18 19:11N 36°50' E 013°41'210.7
2018-Jan-18 18:59N 36°49' E 013°43'810.3
2018-Jan-18 18:14N 36°47' E 013°53'210.1
2018-Jan-18 18:00N 36°47' E 013°55'510.0
2018-Jan-18 17:30N 36°45' E 014°01'610.1
2018-Jan-18 16:54N 36°43' E 014°09'410.1
2018-Jan-18 16:30N 36°42' E 014°13'510.1
2018-Jan-18 16:00N 36°41' E 014°19'5 9.8
2018-Jan-18 15:30N 36°39' E 014°25'  
Track history (hours):
 
Tides and Currents Weather Stations Pressure Air Temp Water Temp Dewpoint Dewpoint Depression Visibility Wind Speed Wind Dir Waves Ship Positions

Victory

Last reported at 2018-Jan-26 00:01 UTC. Time now 2018-Feb-25 06:12 UTC.
Position N 28°05' W 016°16'.
Warning: this ship's position is 30 days out of date.

Length 120 m; draft 6.2 m.

Type: Cargo ship. MMSI: 450548000.

Date/timePositionNaut miles runAvg speedWind from/ knotsBaromVisibWave heightAir tempDewpointWater temp
2018-Jan-26 00:01N 28°05' W 016°16'312.0
2018-Jan-25 23:49N 28°07' W 016°14'511.9
2018-Jan-25 23:25N 28°11' W 016°11'511.8
2018-Jan-25 22:59N 28°15' W 016°07'611.8
2018-Jan-25 22:26N 28°20' W 016°02'511.6
2018-Jan-25 22:00N 28°24' W 015°59'611.3
2018-Jan-25 21:28N 28°28' W 015°54'511.1
2018-Jan-25 21:00N 28°32' W 015°50'610.8
2018-Jan-25 20:28N 28°36' W 015°46'510.9
2018-Jan-25 19:59N 28°40' W 015°41'611.2
2018-Jan-25 19:29N 28°44' W 015°37'611.6
2018-Jan-25 19:00N 28°48' W 015°32'611.7
2018-Jan-25 18:30N 28°52' W 015°27'611.5
2018-Jan-25 18:00N 28°55' W 015°22'  
2018-Jan-23 07:22N 35°58' W 005°35'3 7.4
2018-Jan-23 06:54N 35°59' W 005°30'11 1.2
2018-Jan-22 21:39N 36°05' W 005°19'0 0.3
2018-Jan-22 21:26N 36°05' W 005°18'0 1.0
2018-Jan-22 21:00N 36°05' W 005°18'2 5.0
2018-Jan-22 20:30N 36°06' W 005°15'4 8.1
2018-Jan-22 20:01N 36°04' W 005°20'4 7.8
2018-Jan-22 19:28N 36°04' W 005°14'221 9.9
2018-Jan-21 21:08N 37°31' W 001°01'2 0.3
2018-Jan-21 11:35N 37°33' W 000°58'310.5
2018-Jan-21 11:16N 37°30' W 000°55'311.0
2018-Jan-21 10:59N 37°30' W 000°52'511.0
2018-Jan-21 10:31N 37°29' W 000°45'1110.5
2018-Jan-21 09:27N 37°30' W 000°31'510.8
2018-Jan-21 09:00N 37°30' W 000°25'811.4
2018-Jan-21 08:20N 37°30' W 000°16'6011.1
2018-Jan-21 02:59N 37°31' E 000°59'510.9
2018-Jan-21 02:29N 37°32' E 001°06'3810.0
2018-Jan-20 22:41N 37°32' E 001°54'2 9.9
2018-Jan-20 22:27N 37°32' E 001°57'610.1
2018-Jan-20 21:53N 37°32' E 002°04'55711.0
2018-Jan-18 19:11N 36°50' E 013°41'210.7
2018-Jan-18 18:59N 36°49' E 013°43'810.3
2018-Jan-18 18:14N 36°47' E 013°53'210.1
2018-Jan-18 18:00N 36°47' E 013°55'510.0
2018-Jan-18 17:30N 36°45' E 014°01'610.1
2018-Jan-18 16:54N 36°43' E 014°09'410.1
2018-Jan-18 16:30N 36°42' E 014°13'510.1
2018-Jan-18 16:00N 36°41' E 014°19'5 9.8
2018-Jan-18 15:30N 36°39' E 014°25'  

Dump ship's entire track history